Latest Weather Observations for Yanakie

IDV60801

Issued at 12:12 pm EDT Friday 18 January 2019 (issued every 10 minutes, with the page automatically refreshed every 10 minutes)

About weather observations | Map of weather stations | Latest weather observations for VIC | Other Formats
Station Details ID: 085301 Name: YANAKIE Lat: -38.81 Lon: 146.19 Height: 13.3 m
Data from the previous 72 hours. | See also: Recent months at Yanakie
Date/Time
EDT
Temp
°C
App
Temp
°C
Dew
Point
°C
Rel
Hum
%
Delta-T
°C
Wind Press
QNH
hPa
Press
MSL
hPa
Rain since
9am
mm
Dir  Spd
km/h
Gust
km/h
Spd
kts
Gust
kts
18/12:00pm 24.6 24.7 19.9 75 3.0 W 19 24 10 13 1008.9 1008.8 0.0
18/11:30am 24.5 26.1 20.0 76 2.9 N 11 22 6 12 1007.7 1007.6 0.0
18/11:00am 21.4 23.5 19.3 88 1.3 ENE 7 13 4 7 1007.3 1007.2 0.0
18/10:55am 21.6 23.7 19.3 87 1.5 ENE 7 13 4 7 1006.8 1006.7 0.0
18/10:30am 21.7 20.9 19.3 86 1.5 SW 22 30 12 16 1009.0 1008.9 0.0
18/10:00am 23.3 21.7 18.4 74 3.1 SW 24 35 13 19 1008.6 1008.5 0.0
18/09:53am 24.2 22.0 18.8 72 3.4 SW 28 46 15 25 1008.3 1008.2 0.0
18/09:40am 25.4 26.9 18.8 67 4.2 SSW 9 44 5 24 1008.4 1008.3 0.0
18/09:30am 25.8 28.2 18.7 65 4.5 SE 4 6 2 3 1007.3 1007.2 0.0
18/09:00am 26.0 27.1 18.9 65 4.6 ENE 11 17 6 9 1006.6 1006.5 0.6
18/08:30am 25.4 26.7 19.3 69 3.9 NE 11 19 6 10 1006.6 1006.5 0.6
18/08:00am 24.2 26.1 19.7 76 2.9 NE 9 15 5 8 1006.5 1006.4 0.6
18/07:30am 23.7 25.5 18.4 72 3.3 NE 6 7 3 4 1006.5 1006.4 0.6
18/07:00am 22.9 24.9 18.7 77 2.7 NNE 6 13 3 7 1006.9 1006.8 0.6
18/06:30am 22.4 23.9 18.8 80 2.3 NNE 9 13 5 7 1006.9 1006.8 0.6
18/06:00am 22.0 23.5 18.8 82 2.0 NNE 9 15 5 8 1007.1 1007.0 0.6
18/05:30am 22.1 23.3 19.8 87 1.5 NNE 13 19 7 10 1007.1 1007.0 0.6
18/05:00am 21.0 22.7 18.4 85 1.6 NE 7 13 4 7 1006.9 1006.8 0.6
18/04:30am 21.4 22.7 18.4 83 1.9 N 9 15 5 8 1006.6 1006.5 0.6
18/04:00am 20.3 21.9 18.2 88 1.3 NE 7 13 4 7 1007.5 1007.4 0.6
18/03:30am 21.7 23.2 17.5 77 2.6 NNW 6 9 3 5 1008.3 1008.2 0.4
18/03:00am 21.4 22.6 18.2 82 2.0 NW 9 15 5 8 1009.1 1009.0 0.0
18/02:30am 21.2 22.8 17.8 81 2.1 S 6 9 3 5 1008.5 1008.4 0.0
18/02:00am 21.7 21.7 17.3 76 2.7 SW 13 19 7 10 1009.0 1008.9 0.0
18/01:53am 21.9 22.6 17.1 74 2.9 SSW 9 19 5 10 1009.5 1009.4 0.0
18/01:30am 22.4 23.6 16.9 71 3.4 ESE 6 9 3 5 1007.4 1007.3 0.0
18/01:26am 22.5 23.6 17.0 71 3.4 SE 7 11 4 6 1007.5 1007.4 0.0
18/01:00am 22.6 22.9 16.9 70 3.5 SW 11 13 6 7 1009.5 1009.4 0.0
18/12:30am 22.7 23.8 16.5 68 3.8 NNW 6 9 3 5 1009.4 1009.3 0.0
18/12:00am 23.3 23.7 16.4 65 4.2 N 9 13 5 7 1009.1 1009.0 0.0
 
Date/Time
EDT
Temp
°C
App
Temp
°C
Dew
Point
°C
Rel
Hum
%
Delta-T
°C
Wind Press
QNH
hPa
Press
MSL
hPa
Rain since
9am
mm
Dir  Spd
km/h
Gust
km/h
Spd
kts
Gust
kts
17/11:30pm 22.7 23.6 16.0 66 4.0 N 6 9 3 5 1009.0 1008.9 0.0
17/11:00pm 23.3 24.2 16.6 66 4.1 WNW 7 11 4 6 1009.5 1009.4 0.0
17/10:30pm 23.9 25.3 17.4 67 4.0 WNW 6 7 3 4 1009.1 1009.0 0.0
17/10:00pm 24.9 25.0 16.6 60 5.1 WSW 11 15 6 8 1009.3 1009.2 0.0
17/09:30pm 25.5 25.4 16.9 59 5.3 WSW 13 17 7 9 1008.6 1008.5 0.0
17/09:00pm 25.8 26.9 17.2 59 5.4 SW 7 11 4 6 1008.2 1008.1 0.0
17/08:30pm 26.7 27.1 17.2 56 5.9 SW 11 13 6 7 1007.8 1007.7 0.0
17/08:00pm 28.1 29.4 17.0 51 7.0 W 6 6 3 3 1007.4 1007.3 0.0
17/07:30pm 29.8 30.5 16.2 43 8.5 NW 7 11 4 6 1007.2 1007.1 0.0
17/07:00pm 30.2 29.5 15.5 41 9.1 NW 13 17 7 9 1006.9 1006.8 0.0
17/06:30pm 30.4 31.0 16.8 44 8.6 NNW 9 15 5 8 1006.8 1006.7 0.0
17/06:00pm 29.1 31.8 19.4 55 6.3 NNW 4 6 2 3 1006.8 1006.7 0.0
17/05:30pm 28.0 30.7 21.3 67 4.5 NNE 9 13 5 7 1006.7 1006.6 0.0
17/05:00pm 25.8 28.9 21.5 77 2.9 NE 7 13 4 7 1007.3 1007.2 0.0
17/04:30pm 24.0 26.2 20.3 80 2.4 ENE 9 15 5 8 1007.2 1007.1 0.0
17/04:00pm 24.0 25.1 19.7 77 2.8 NNE 13 19 7 10 1008.3 1008.2 0.0
17/03:30pm 24.2 25.7 19.7 76 2.9 NE 11 17 6 9 1007.9 1007.8 0.0
17/03:00pm 24.8 25.9 19.6 73 3.4 ENE 13 19 7 10 1007.7 1007.6 0.0
17/02:30pm 24.7 24.5 19.3 72 3.5 ENE 19 24 10 13 1007.5 1007.4 0.0
17/02:00pm 24.9 25.0 19.1 70 3.7 ENE 17 24 9 13 1008.0 1007.9 0.0
17/01:30pm 25.2 25.5 19.6 71 3.6 ENE 17 24 9 13 1008.3 1008.2 0.0
17/01:00pm 23.2 23.3 19.2 78 2.6 ENE 17 26 9 14 1008.5 1008.4 0.0
17/12:30pm 23.5 24.3 19.8 80 2.4 ENE 15 22 8 12 1009.0 1008.9 0.0
17/12:00pm 24.0 23.7 19.1 74 3.1 ENE 19 26 10 14 1008.9 1008.8 0.0
17/11:30am 24.5 25.7 20.0 76 2.9 ENE 13 20 7 11 1009.2 1009.1 0.0
17/11:00am 23.9 24.8 19.2 75 3.0 ENE 13 19 7 10 1009.1 1009.0 0.0
17/10:30am 23.6 26.1 19.1 76 2.9 NW 4 9 2 5 1009.2 1009.1 0.0
17/10:00am 23.4 25.5 19.3 78 2.6 SW 7 13 4 7 1008.7 1008.6 0.0
17/09:30am 23.2 24.5 19.4 79 2.4 SW 11 17 6 9 1009.2 1009.1 0.0
17/09:00am 23.5 25.1 19.2 77 2.7 NE 9 13 5 7 1008.4 1008.3 0.0
17/08:30am 21.9 24.4 19.8 88 1.3 ENE 6 7 3 4 1008.1 1008.0 0.0
17/08:00am 21.1 25.0 20.3 95 0.5 CALM 0 0 0 0 1008.1 1008.0 0.0
17/07:30am 20.0 22.5 19.0 94 0.6 ENE 4 6 2 3 1007.5 1007.4 0.0
17/07:00am 19.6 22.6 18.4 93 0.7 CALM 0 0 0 0 1007.7 1007.6 0.0
17/06:30am 19.2 21.1 17.7 91 0.9 WNW 4 6 2 3 1007.7 1007.6 0.0
17/06:00am 20.2 21.7 18.1 88 1.3 S 7 11 4 6 1007.4 1007.3 0.0
17/05:30am 20.2 20.8 17.8 86 1.5 WSW 11 17 6 9 1008.4 1008.3 0.0
17/05:00am 20.0 21.2 17.4 85 1.6 W 7 11 4 6 1007.1 1007.0 0.0
17/04:30am 20.0 21.1 17.2 84 1.7 WSW 7 9 4 5 1006.3 1006.2 0.0
17/04:00am 20.3 21.2 16.5 79 2.3 WSW 7 9 4 5 1006.4 1006.3 0.0
17/03:30am 21.2 21.3 13.9 63 4.2 WSW 6 11 3 6 1006.3 1006.2 0.0
17/03:00am 22.8 23.0 14.6 60 4.9 E 7 9 4 5 1006.4 1006.3 0.0
17/02:30am 21.9 22.0 15.5 67 3.8 ESE 9 13 5 7 1006.6 1006.5 0.0
17/02:00am 21.1 22.5 17.3 79 2.3 ESE 6 7 3 4 1007.2 1007.1 0.0
17/01:30am 21.8 22.3 18.4 81 2.1 ENE 13 20 7 11 1007.7 1007.6 0.0
17/01:00am 21.5 21.8 18.7 84 1.8 ENE 15 22 8 12 1008.4 1008.3 0.0
17/12:30am 21.0 21.3 18.8 87 1.4 ENE 15 22 8 12 1009.2 1009.1 0.0
17/12:00am 20.6 20.8 18.5 88 1.3 ENE 15 20 8 11 1009.7 1009.6 0.0
 
Date/Time
EDT
Temp
°C
App
Temp
°C
Dew
Point
°C
Rel
Hum
%
Delta-T
°C
Wind Press
QNH
hPa
Press
MSL
hPa
Rain since
9am
mm
Dir  Spd
km/h
Gust
km/h
Spd
kts
Gust
kts
16/11:30pm 20.4 19.6 18.0 86 1.5 ENE 19 24 10 13 1010.1 1010.0 0.0
16/11:00pm 20.6 20.2 18.0 85 1.6 ENE 17 26 9 14 1010.3 1010.2 0.0
16/10:30pm 21.0 20.2 18.0 83 1.9 ENE 19 26 10 14 1010.7 1010.6 0.0
16/10:00pm 20.8 19.8 16.6 77 2.5 E 17 26 9 14 1011.2 1011.1 0.0
16/09:30pm 20.3 20.0 15.5 74 2.8 E 11 19 6 10 1011.5 1011.4 0.0
16/09:00pm 20.6 20.9 16.0 75 2.8 E 9 15 5 8 1011.2 1011.1 0.0
16/08:30pm 20.0 19.5 16.0 78 2.4 NE 13 20 7 11 1010.5 1010.4 0.0
16/08:00pm 19.3 20.0 16.0 81 2.0 ENE 7 9 4 5 1011.9 1011.8 0.0
16/07:30pm 19.1 19.7 15.8 81 2.0 S 7 9 4 5 1012.2 1012.1 0.0
16/07:00pm 19.6 19.9 15.9 79 2.2 SW 9 13 5 7 1013.5 1013.4 0.0
16/06:30pm 19.6 20.3 15.5 77 2.4 S 6 9 3 5 1012.2 1012.1 0.0
16/06:00pm 19.6 19.4 15.7 78 2.3 SW 11 15 6 8 1013.5 1013.4 0.0
16/05:30pm 19.9 19.1 16.0 78 2.3 SW 15 20 8 11 1013.0 1012.9 0.0
16/05:00pm 21.3 20.4 15.8 71 3.3 SW 15 20 8 11 1012.5 1012.4 0.0
16/04:30pm 21.0 20.9 16.0 73 3.0 SSW 11 17 6 9 1011.7 1011.6 0.0
16/04:00pm 21.5 20.5 16.5 73 3.0 SW 17 22 9 12 1012.4 1012.3 0.0
16/03:30pm 21.1 20.1 16.5 75 2.8 SSW 17 24 9 13 1012.6 1012.5 0.0
16/03:00pm 20.9 18.9 16.5 76 2.7 SW 22 30 12 16 1012.7 1012.6 0.0
16/02:30pm 20.9 19.0 16.7 77 2.5 SW 22 30 12 16 1012.5 1012.4 0.0
16/02:00pm 21.3 20.0 16.7 75 2.8 SSW 19 24 10 13 1011.7 1011.6 0.0
16/01:30pm 22.1 21.0 16.4 70 3.5 SSW 17 24 9 13 1011.5 1011.4 0.0
16/01:00pm 22.9 22.7 16.7 68 3.8 SSW 13 20 7 11 1011.7 1011.6 0.0
16/12:30pm 22.0 21.7 16.5 71 3.3 SSW 13 19 7 10 1011.6 1011.5 0.0
16/12:00pm 22.2 20.9 16.9 72 3.2 SSW 19 26 10 14 1011.8 1011.7 0.0
16/11:30am 21.4 19.8 16.1 72 3.2 SSW 19 26 10 14 1011.8 1011.7 0.0
16/11:00am 21.6 20.7 16.8 74 2.9 SSW 17 24 9 13 1011.6 1011.5 0.0
16/10:30am 21.5 21.5 17.1 76 2.7 SSW 13 19 7 10 1011.1 1011.0 0.0
16/10:00am 20.6 21.7 17.0 80 2.2 SSW 7 11 4 6 1011.0 1010.9 0.0
16/09:30am 20.3 20.9 16.7 80 2.2 SW 9 15 5 8 1011.0 1010.9 0.0
16/09:00am 19.7 20.6 16.5 82 1.9 W 7 13 4 7 1010.8 1010.7 0.0
16/08:30am 19.4 18.9 16.8 85 1.6 WSW 15 26 8 14 1011.1 1011.0 0.0
16/08:00am 19.1 19.4 17.8 92 0.8 WSW 13 19 7 10 1011.0 1010.9 0.0
16/07:30am 18.4 18.3 17.9 97 0.3 WSW 15 19 8 10 1010.4 1010.3 0.0
16/07:00am 18.2 18.2 18.2 100 0.0 W 15 19 8 10 1009.9 1009.8 0.0
16/06:30am 18.3 19.2 18.3 100 0.0 W 11 15 6 8 1009.7 1009.6 0.0
16/06:00am 18.2 19.8 18.2 100 0.0 WSW 7 9 4 5 1009.4 1009.3 0.0
16/05:30am 18.1 19.2 17.9 99 0.1 WSW 9 13 5 7 1009.4 1009.3 0.0
16/05:00am 18.4 19.2 18.2 99 0.1 SW 11 15 6 8 1009.0 1008.9 0.0
16/04:30am 18.9 20.3 18.7 99 0.1 SSW 9 13 5 7 1008.7 1008.6 0.0
16/04:00am 19.1 19.9 19.1 100 0.0 SW 13 17 7 9 1009.0 1008.9 0.0
16/03:30am 19.3 19.8 19.3 100 0.0 SW 15 20 8 11 1009.0 1008.9 0.0
16/03:00am 18.9 18.7 18.4 97 0.3 SW 17 22 9 12 1009.3 1009.2 0.0
16/02:30am 19.0 19.2 18.5 97 0.3 SW 15 19 8 10 1009.5 1009.4 0.0
16/02:00am 18.7 18.5 17.7 94 0.6 SSW 15 19 8 10 1009.4 1009.3 0.0
16/01:30am 19.0 18.6 17.1 89 1.2 SSW 15 17 8 9 1009.2 1009.1 0.0
16/01:00am 18.6 18.8 15.7 83 1.7 SSW 9 13 5 7 1009.2 1009.1 0.0
16/12:30am 18.5 19.2 14.4 77 2.4 SSE 4 6 2 3 1009.0 1008.9 0.0
16/12:00am 19.8 20.7 16.1 79 2.2 S 6 9 3 5 1009.3 1009.2 0.0
 
Date/Time
EDT
Temp
°C
App
Temp
°C
Dew
Point
°C
Rel
Hum
%
Delta-T
°C
Wind Press
QNH
hPa
Press
MSL
hPa
Rain since
9am
mm
Dir  Spd
km/h
Gust
km/h
Spd
kts
Gust
kts
15/11:30pm 18.7 19.2 14.0 74 2.7 SSW 4 6 2 3 1008.9 1008.8 0.0
15/11:00pm 20.6 21.0 14.7 69 3.5 N 6 7 3 4 1008.6 1008.5 0.0
15/10:30pm 20.4 21.3 16.0 76 2.6 NNE 6 7 3 4 1008.7 1008.6 0.0
15/10:00pm 18.7 19.5 15.9 84 1.7 NNE 6 7 3 4 1008.9 1008.8 0.0
15/09:30pm 19.9 21.8 16.7 82 1.9 NW 2 6 1 3 1009.4 1009.3 0.0
15/09:00pm 21.4 24.4 18.4 83 1.9 CALM 0 0 0 0 1009.1 1009.0 0.0
15/08:30pm 22.3 24.8 19.1 82 2.0 NNE 4 6 2 3 1009.1 1009.0 0.0
15/08:00pm 22.2 25.3 18.6 80 2.3 CALM 0 0 0 0 1009.1 1009.0 0.0
15/07:30pm 23.4 26.7 19.1 77 2.7 CALM 0 0 0 0 1009.2 1009.1 0.0
15/07:00pm 23.1 25.6 19.1 78 2.5 NNE 4 7 2 4 1008.6 1008.5 0.0
15/06:30pm 22.5 23.8 19.3 82 2.0 S 11 15 6 8 1008.7 1008.6 0.0
15/06:00pm 22.2 23.9 20.1 88 1.4 SSW 11 15 6 8 1009.4 1009.3 0.0
15/05:30pm 22.2 22.5 19.7 86 1.6 SW 17 22 9 12 1009.1 1009.0 0.0
15/05:00pm 23.8 23.4 19.3 76 2.9 SW 20 24 11 13 1008.7 1008.6 0.0
15/04:30pm 27.0 28.3 19.4 63 4.9 SW 11 17 6 9 1008.4 1008.3 0.0
15/04:00pm 26.6 29.1 20.2 68 4.2 SSW 7 11 4 6 1008.3 1008.2 0.0
15/03:30pm 27.1 28.9 20.4 66 4.4 SW 11 15 6 8 1008.8 1008.7 0.0
15/03:00pm 26.5 27.6 19.6 66 4.5 SW 13 15 7 8 1009.0 1008.9 0.0
15/02:30pm 27.3 28.7 19.6 62 5.0 SW 11 15 6 8 1008.9 1008.8 0.0
15/02:00pm 27.5 28.7 19.8 63 5.0 SW 13 19 7 10 1008.9 1008.8 0.0
15/01:30pm 26.9 27.7 19.8 65 4.6 SW 15 20 8 11 1009.0 1008.9 0.0
15/01:00pm 25.8 26.3 20.1 71 3.7 SSW 17 22 9 12 1009.1 1009.0 0.0
15/12:30pm 25.6 24.5 19.5 69 3.9 SW 24 28 13 15 1009.3 1009.2 0.0

Other Formats:

Comma delimited format used in spreadsheet applications
http://www.bom.gov.au/fwo/IDV60801/IDV60801.94911.axf

JavaScript Object Notation format (JSON) in row-major order
http://www.bom.gov.au/fwo/IDV60801/IDV60801.94911.json